Time;durP1;ratioP1;P1;durP2;ratioP2;P2;SDS_P1;SDS_P2;PMS_P1;PMS_P2;Temp;Humidity;BMP_temperature;BMP_pressure;BME280_temperature;BME280_humidity;BME280_pressure;Samples;Min_cycle;Max_cycle;Signal;HPM_P1;HPM_P2
2022/11/02 00:02:37;;;;;;;11.65;8.07;;;;;;;;;;10145751;28;20046;-71
2022/11/02 00:07:33;;;;;;;11.48;7.60;;;;;;;;;;10143844;28;20050;-70
2022/11/02 00:12:30;;;;;;;16.67;7.93;;;;;;;;;;10137149;28;20049;-70
2022/11/02 00:17:27;;;;;;;10.10;7.28;;;;;;;;;;10129550;28;20082;-70
2022/11/02 00:22:24;;;;;;;10.60;7.18;;;;;;;;;;10136779;28;20498;-70
2022/11/02 00:27:21;;;;;;;15.15;7.63;;;;;;;;;;10137782;28;20055;-70
2022/11/02 00:32:18;;;;;;;9.55;7.50;;;;;;;;;;10136338;28;20057;-69
2022/11/02 00:37:14;;;;;;;10.60;7.18;;;;;;;;;;10134280;28;20405;-71
2022/11/02 00:42:10;;;;;;;10.68;7.18;;;;;;;;;;10136871;28;20050;-72
2022/11/02 00:47:06;;;;;;;10.70;7.68;;;;;;;;;;10137094;28;20054;-70
2022/11/02 00:52:03;;;;;;;8.10;7.07;;;;;;;;;;10135079;28;20066;-69
2022/11/02 00:56:59;;;;;;;13.20;8.25;;;;;;;;;;10133304;28;20070;-69
2022/11/02 01:01:56;;;;;;;13.48;7.40;;;;;;;;;;10142712;28;20149;-69
2022/11/02 01:06:53;;;;;;;9.05;8.10;;;;;;;;;;10139107;28;21458;-69
2022/11/02 01:11:50;;;;;;;17.92;8.10;;;;;;;;;;10132195;28;20510;-69
2022/11/02 01:16:46;;;;;;;11.48;8.13;;;;;;;;;;10137736;28;20046;-71
2022/11/02 01:21:43;;;;;;;8.48;7.30;;;;;;;;;;10128070;28;20547;-71
2022/11/02 01:26:39;;;;;;;10.52;7.53;;;;;;;;;;10137333;28;20053;-71
2022/11/02 01:31:35;;;;;;;14.23;8.35;;;;;;;;;;10134842;28;20136;-72
2022/11/02 01:36:32;;;;;;;9.80;7.85;;;;;;;;;;10134512;28;20680;-72
2022/11/02 01:41:28;;;;;;;13.80;7.75;;;;;;;;;;10131980;28;20256;-72
2022/11/02 01:46:30;;;;;;;16.73;7.65;;;;;;;;;;10126334;28;20498;-71
2022/11/02 01:51:34;;;;;;;12.55;8.43;;;;;;;;;;10135858;28;20506;-70
2022/11/02 01:56:31;;;;;;;12.95;7.32;;;;;;;;;;10130748;28;20564;-70
2022/11/02 02:01:27;;;;;;;12.20;7.72;;;;;;;;;;10131191;28;20418;-70
2022/11/02 02:06:27;;;;;;;14.38;8.52;;;;;;;;;;10125438;28;20108;-71
2022/11/02 02:11:26;;;;;;;13.68;8.02;;;;;;;;;;10128719;28;20049;-71
2022/11/02 02:16:29;;;;;;;13.18;7.63;;;;;;;;;;10132636;28;20043;-71
2022/11/02 02:21:31;;;;;;;11.05;7.65;;;;;;;;;;10134257;28;20733;-71
2022/11/02 02:26:34;;;;;;;12.98;7.88;;;;;;;;;;10129372;28;20411;-71
2022/11/02 02:31:30;;;;;;;14.63;7.95;;;;;;;;;;10133443;28;20042;-70
2022/11/02 02:36:26;;;;;;;9.45;7.35;;;;;;;;;;10130156;28;20421;-70
2022/11/02 02:41:28;;;;;;;9.32;7.30;;;;;;;;;;10135942;28;20052;-69
2022/11/02 02:46:28;;;;;;;10.20;7.03;;;;;;;;;;10133392;28;20506;-70
2022/11/02 02:51:28;;;;;;;12.50;7.50;;;;;;;;;;10135719;28;20076;-70
2022/11/02 02:56:27;;;;;;;9.43;7.13;;;;;;;;;;10132187;28;20058;-70
2022/11/02 03:01:24;;;;;;;12.43;7.07;;;;;;;;;;10136645;28;20426;-70
2022/11/02 03:06:21;;;;;;;11.02;7.60;;;;;;;;;;10130153;28;20054;-71
2022/11/02 03:11:19;;;;;;;10.05;7.28;;;;;;;;;;10134391;28;20430;-71
2022/11/02 03:16:26;;;;;;;10.90;6.78;;;;;;;;;;10145679;28;20046;-71
2022/11/02 03:21:26;;;;;;;11.88;7.78;;;;;;;;;;10145575;28;20078;-71
2022/11/02 03:26:26;;;;;;;14.32;8.30;;;;;;;;;;10141211;28;20054;-71
2022/11/02 03:31:34;;;;;;;14.10;8.43;;;;;;;;;;10161688;28;20066;-70
2022/11/02 03:36:42;;;;;;;11.95;7.78;;;;;;;;;;10136528;28;20506;-71
2022/11/02 03:41:39;;;;;;;10.93;8.25;;;;;;;;;;10136756;28;20046;-70
2022/11/02 03:46:37;;;;;;;14.32;8.07;;;;;;;;;;10136697;28;20056;-68
2022/11/02 03:51:35;;;;;;;13.02;8.25;;;;;;;;;;10136748;28;20105;-68
2022/11/02 03:56:34;;;;;;;9.77;8.40;;;;;;;;;;10138727;28;20542;-69
2022/11/02 04:01:35;;;;;;;14.65;8.73;;;;;;;;;;10136278;28;20582;-69
2022/11/02 04:06:33;;;;;;;15.45;8.80;;;;;;;;;;10125678;28;20078;-69
2022/11/02 04:16:44;;;;;;;15.15;8.70;;;;;;;;;;10129148;28;20065;-69
2022/11/02 04:25:14;;;;;;;9.77;8.90;;;;;;;;;;10125145;28;20054;-69
2022/11/02 04:26:57;;;;;;;14.52;9.48;;;;;;;;;;10130577;28;20050;-69
2022/11/02 04:31:53;;;;;;;11.57;9.52;;;;;;;;;;10123521;28;20541;-70
2022/11/02 04:36:50;;;;;;;13.27;8.98;;;;;;;;;;10140037;28;20101;-69
2022/11/02 04:41:46;;;;;;;12.57;9.32;;;;;;;;;;10132092;28;20061;-69
2022/11/02 04:46:43;;;;;;;11.52;9.63;;;;;;;;;;10127004;28;20054;-72
2022/11/02 04:51:39;;;;;;;15.23;10.15;;;;;;;;;;10142413;28;20060;-72
2022/11/02 04:56:41;;;;;;;13.60;10.23;;;;;;;;;;10122890;28;20574;-72
2022/11/02 05:01:38;;;;;;;17.30;9.45;;;;;;;;;;10127029;28;20042;-71
2022/11/02 05:06:35;;;;;;;17.23;10.75;;;;;;;;;;10128878;28;20051;-71
2022/11/02 05:11:31;;;;;;;12.60;10.45;;;;;;;;;;10126049;28;20541;-71
2022/11/02 05:16:27;;;;;;;14.23;10.32;;;;;;;;;;10124097;28;20126;-72
2022/11/02 05:21:24;;;;;;;13.25;10.70;;;;;;;;;;10127982;28;20054;-72
2022/11/02 05:26:20;;;;;;;16.70;10.25;;;;;;;;;;10138328;28;20050;-73
2022/11/02 05:31:16;;;;;;;15.57;10.65;;;;;;;;;;10138762;28;20057;-73
2022/11/02 05:36:13;;;;;;;13.45;10.90;;;;;;;;;;10129263;28;20050;-73
2022/11/02 05:41:09;;;;;;;13.00;11.65;;;;;;;;;;10142017;28;20133;-73
2022/11/02 05:46:05;;;;;;;14.50;11.88;;;;;;;;;;10126523;28;20061;-73
2022/11/02 05:51:03;;;;;;;13.55;12.20;;;;;;;;;;10127833;28;20050;-72
2022/11/02 05:55:59;;;;;;;14.77;12.13;;;;;;;;;;10123104;28;20503;-73
2022/11/02 06:01:03;;;;;;;15.75;13.32;;;;;;;;;;10130250;28;20053;-73
2022/11/02 06:06:02;;;;;;;14.80;13.30;;;;;;;;;;10127534;28;20054;-74
2022/11/02 06:11:02;;;;;;;15.88;14.38;;;;;;;;;;10138080;28;20065;-73
2022/11/02 06:15:59;;;;;;;18.15;13.98;;;;;;;;;;10130293;28;20053;-73
2022/11/02 06:20:58;;;;;;;16.38;14.77;;;;;;;;;;10122714;28;20678;-73
2022/11/02 06:25:56;;;;;;;17.10;15.32;;;;;;;;;;10124253;28;20038;-73
2022/11/02 06:30:52;;;;;;;15.18;13.90;;;;;;;;;;10124820;28;20058;-73
2022/11/02 06:35:52;;;;;;;18.85;15.30;;;;;;;;;;10127843;28;20050;-72
2022/11/02 06:41:06;;;;;;;17.15;15.75;;;;;;;;;;10124823;28;20042;-73
2022/11/02 06:46:03;;;;;;;16.95;15.32;;;;;;;;;;10123710;28;20050;-73
2022/11/02 06:50:59;;;;;;;17.23;15.50;;;;;;;;;;10137284;28;20046;-73
2022/11/02 06:55:56;;;;;;;19.73;17.58;;;;;;;;;;10132604;28;20043;-73
2022/11/02 07:01:03;;;;;;;19.23;17.35;;;;;;;;;;10139509;28;20133;-72
2022/11/02 07:06:00;;;;;;;18.50;16.65;;;;;;;;;;10131502;28;20151;-73
2022/11/02 07:10:57;;;;;;;19.17;16.83;;;;;;;;;;10135005;28;20059;-72
2022/11/02 07:15:53;;;;;;;25.17;17.05;;;;;;;;;;10132406;28;20234;-72
2022/11/02 07:20:50;;;;;;;16.55;15.25;;;;;;;;;;10129233;28;20407;-72
2022/11/02 07:25:46;;;;;;;17.60;15.93;;;;;;;;;;10130019;28;20046;-72
2022/11/02 07:30:42;;;;;;;17.20;15.15;;;;;;;;;;10129131;28;20050;-73
2022/11/02 07:35:38;;;;;;;19.73;15.73;;;;;;;;;;10139257;28;20050;-73
2022/11/02 07:40:35;;;;;;;18.00;13.77;;;;;;;;;;10134684;28;20042;-72
2022/11/02 07:45:31;;;;;;;16.38;12.63;;;;;;;;;;10140740;28;20038;-73
2022/11/02 07:50:27;;;;;;;14.27;12.68;;;;;;;;;;10130678;28;20558;-73
2022/11/02 07:55:28;;;;;;;15.80;12.73;;;;;;;;;;10139508;28;20077;-72
2022/11/02 08:00:25;;;;;;;13.27;11.85;;;;;;;;;;10136897;28;20038;-72
2022/11/02 08:05:22;;;;;;;17.83;11.57;;;;;;;;;;10131083;28;20058;-72
2022/11/02 08:10:18;;;;;;;13.38;12.05;;;;;;;;;;10135207;28;20054;-72
2022/11/02 08:15:15;;;;;;;13.55;12.27;;;;;;;;;;10124031;28;20592;-72
2022/11/02 08:20:11;;;;;;;15.50;11.70;;;;;;;;;;10126355;28;20745;-73
2022/11/02 08:25:07;;;;;;;14.73;11.25;;;;;;;;;;10121992;28;20542;-72
2022/11/02 08:30:05;;;;;;;13.60;10.80;;;;;;;;;;10128161;28;20150;-72
2022/11/02 08:35:01;;;;;;;13.55;10.85;;;;;;;;;;10134347;28;20053;-73
2022/11/02 08:39:57;;;;;;;14.65;10.60;;;;;;;;;;10135006;28;20057;-72
2022/11/02 08:44:53;;;;;;;13.32;10.77;;;;;;;;;;10126156;28;20065;-72
2022/11/02 08:49:50;;;;;;;12.75;9.95;;;;;;;;;;10144965;28;20050;-73
2022/11/02 08:54:46;;;;;;;15.27;10.82;;;;;;;;;;10142294;28;20129;-72
2022/11/02 08:59:43;;;;;;;23.38;11.27;;;;;;;;;;10122784;28;20043;-72
2022/11/02 09:04:39;;;;;;;15.15;10.88;;;;;;;;;;10129175;28;20050;-72
2022/11/02 09:09:35;;;;;;;13.38;9.90;;;;;;;;;;10127516;28;20073;-72
2022/11/02 09:14:31;;;;;;;12.40;10.05;;;;;;;;;;10120908;28;20061;-73
2022/11/02 09:19:28;;;;;;;11.48;10.18;;;;;;;;;;10123015;28;20571;-73
2022/11/02 09:24:24;;;;;;;14.30;10.55;;;;;;;;;;10129591;28;20065;-73
2022/11/02 09:29:20;;;;;;;14.07;10.57;;;;;;;;;;10121872;28;20046;-73
2022/11/02 09:34:16;;;;;;;17.20;11.40;;;;;;;;;;10128391;28;20069;-73
2022/11/02 09:39:13;;;;;;;17.30;10.90;;;;;;;;;;10125618;28;20575;-72
2022/11/02 09:44:14;;;;;;;15.73;10.27;;;;;;;;;;10128581;28;20130;-73
2022/11/02 09:49:12;;;;;;;13.25;10.40;;;;;;;;;;10131629;28;20043;-73
2022/11/02 09:54:12;;;;;;;14.02;10.65;;;;;;;;;;10131586;28;20068;-70
2022/11/02 09:59:15;;;;;;;16.52;9.63;;;;;;;;;;10128806;28;20125;-70
2022/11/02 10:04:20;;;;;;;12.65;10.70;;;;;;;;;;10128554;28;20526;-70
2022/11/02 10:09:22;;;;;;;21.05;10.80;;;;;;;;;;10123154;28;20042;-73
2022/11/02 10:14:26;;;;;;;39.77;12.20;;;;;;;;;;10123884;28;20058;-71
2022/11/02 10:19:22;;;;;;;11.98;10.80;;;;;;;;;;10116366;28;20469;-73
2022/11/02 10:24:35;;;;;;;23.25;18.65;;;;;;;;;;10127102;28;20049;-71
2022/11/02 10:29:43;;;;;;;46.17;43.17;;;;;;;;;;10129582;28;20310;-71
2022/11/02 10:34:41;;;;;;;58.40;54.47;;;;;;;;;;10139774;28;20418;-72
2022/11/02 10:39:55;;;;;;;60.65;57.15;;;;;;;;;;10129406;28;20046;-72
2022/11/02 10:44:52;;;;;;;79.78;74.68;;;;;;;;;;10148068;28;20514;-72
2022/11/02 10:50:00;;;;;;;82.68;76.07;;;;;;;;;;10124758;28;20038;-70
2022/11/02 10:54:56;;;;;;;90.45;84.35;;;;;;;;;;10121557;28;20076;-70
2022/11/02 11:00:11;;;;;;;84.75;79.75;;;;;;;;;;10127335;28;20045;-72
2022/11/02 11:05:13;;;;;;;62.63;58.65;;;;;;;;;;10126282;28;20050;-70
2022/11/02 11:10:13;;;;;;;39.88;36.92;;;;;;;;;;10125761;28;20502;-70
2022/11/02 11:15:20;;;;;;;36.33;33.97;;;;;;;;;;10125655;28;20640;-70
2022/11/02 11:20:38;;;;;;;31.52;29.17;;;;;;;;;;10125429;28;20080;-71
2022/11/02 11:25:34;;;;;;;24.95;22.95;;;;;;;;;;10128602;28;20126;-70
2022/11/02 11:30:32;;;;;;;23.08;21.17;;;;;;;;;;10124246;28;20043;-75
2022/11/02 11:35:49;;;;;;;26.83;24.73;;;;;;;;;;10124634;28;20053;-71
2022/11/02 11:40:47;;;;;;;24.90;23.10;;;;;;;;;;10136766;28;20129;-72
2022/11/02 11:45:56;;;;;;;30.20;28.13;;;;;;;;;;10134769;28;20058;-71
2022/11/02 11:51:00;;;;;;;26.20;24.20;;;;;;;;;;10123290;28;20049;-71
2022/11/02 11:55:58;;;;;;;26.42;24.50;;;;;;;;;;10134037;28;20081;-71
2022/11/02 12:01:06;;;;;;;19.90;18.52;;;;;;;;;;10143889;28;20141;-70
2022/11/02 12:06:21;;;;;;;18.98;17.30;;;;;;;;;;10134054;28;20072;-71
2022/11/02 12:11:24;;;;;;;22.05;20.48;;;;;;;;;;10129332;28;20057;-71
2022/11/02 12:16:27;;;;;;;25.35;23.75;;;;;;;;;;10132261;28;20510;-71
2022/11/02 12:21:23;;;;;;;29.33;27.33;;;;;;;;;;10136791;28;20057;-71
2022/11/02 12:26:38;;;;;;;30.90;28.67;;;;;;;;;;10134585;28;20667;-71
2022/11/02 12:31:34;;;;;;;30.75;28.63;;;;;;;;;;10126579;28;20462;-70
2022/11/02 12:36:37;;;;;;;31.50;29.45;;;;;;;;;;10144976;28;20042;-71
2022/11/02 12:41:54;;;;;;;15.07;13.77;;;;;;;;;;10133935;28;20422;-71
2022/11/02 12:47:02;;;;;;;12.13;10.90;;;;;;;;;;10136901;28;20053;-71
2022/11/02 12:52:03;;;;;;;11.15;8.05;;;;;;;;;;10141602;28;20046;-71
2022/11/02 12:56:59;;;;;;;9.13;8.23;;;;;;;;;;10138103;28;20043;-72
2022/11/02 13:02:00;;;;;;;10.10;7.90;;;;;;;;;;10135308;28;20051;-71
2022/11/02 13:07:02;;;;;;;8.80;7.43;;;;;;;;;;10131374;28;20080;-71
2022/11/02 13:12:04;;;;;;;12.73;8.77;;;;;;;;;;10137659;28;20046;-71
2022/11/02 13:17:16;;;;;;;12.65;9.35;;;;;;;;;;10126011;28;20043;-71
2022/11/02 13:22:14;;;;;;;10.15;8.55;;;;;;;;;;10131021;28;20050;-72
2022/11/02 13:27:25;;;;;;;14.63;8.30;;;;;;;;;;10133977;28;20514;-72
2022/11/02 13:32:42;;;;;;;10.98;8.90;;;;;;;;;;10134261;28;20046;-72
2022/11/02 13:37:41;;;;;;;12.55;8.90;;;;;;;;;;10135764;28;20050;-72
2022/11/02 13:42:41;;;;;;;11.05;9.13;;;;;;;;;;10131942;28;20043;-72
2022/11/02 13:47:46;;;;;;;11.32;10.20;;;;;;;;;;10137718;28;20707;-72
2022/11/02 13:52:45;;;;;;;12.52;10.88;;;;;;;;;;10127964;28;20057;-69
2022/11/02 13:57:43;;;;;;;13.27;11.85;;;;;;;;;;10125344;28;20530;-69
2022/11/02 14:02:41;;;;;;;12.15;10.95;;;;;;;;;;10125981;28;20046;-69
2022/11/02 14:07:39;;;;;;;11.23;10.23;;;;;;;;;;10126321;28;20042;-69
2022/11/02 14:12:40;;;;;;;10.63;8.73;;;;;;;;;;10127201;28;20050;-68
2022/11/02 14:17:51;;;;;;;10.80;8.07;;;;;;;;;;10125865;28;20058;-70
2022/11/02 14:23:06;;;;;;;13.75;8.65;;;;;;;;;;10126497;28;20042;-70
2022/11/02 14:28:18;;;;;;;9.25;8.35;;;;;;;;;;10122960;28;20157;-71
2022/11/02 14:33:30;;;;;;;9.85;8.85;;;;;;;;;;10143908;28;20050;-71
2022/11/02 14:38:26;;;;;;;9.32;8.27;;;;;;;;;;10123131;28;20429;-70
2022/11/02 14:43:55;;;;;;;13.70;8.18;;;;;;;;;;10123519;28;20051;-71
2022/11/02 14:48:53;;;;;;;8.90;8.07;;;;;;;;;;10105218;28;20047;-71
2022/11/02 14:53:54;;;;;;;10.38;7.60;;;;;;;;;;10122639;28;20145;-71
2022/11/02 14:58:53;;;;;;;11.55;7.85;;;;;;;;;;10132363;28;20049;-71
2022/11/02 15:03:49;;;;;;;10.07;7.45;;;;;;;;;;10122335;28;20038;-71
2022/11/02 15:08:51;;;;;;;12.38;7.47;;;;;;;;;;10130032;28;20121;-71
2022/11/02 15:13:47;;;;;;;10.45;7.15;;;;;;;;;;10145803;28;20050;-71
2022/11/02 15:18:43;;;;;;;11.50;7.60;;;;;;;;;;10132165;28;20507;-71
2022/11/02 15:23:49;;;;;;;8.63;7.55;;;;;;;;;;10143574;28;20042;-71
2022/11/02 15:28:47;;;;;;;10.98;7.53;;;;;;;;;;10136219;28;20149;-71
2022/11/02 15:33:52;;;;;;;12.77;7.63;;;;;;;;;;10130321;28;20052;-71
2022/11/02 15:38:49;;;;;;;10.60;7.25;;;;;;;;;;10134426;28;20042;-71
2022/11/02 15:44:01;;;;;;;10.05;7.10;;;;;;;;;;10143772;28;20053;-71
2022/11/02 15:49:03;;;;;;;10.32;6.38;;;;;;;;;;10139808;28;20038;-72
2022/11/02 15:54:09;;;;;;;8.32;6.88;;;;;;;;;;10138356;28;20054;-71
2022/11/02 15:59:17;;;;;;;8.73;7.13;;;;;;;;;;10137499;28;20039;-71
2022/11/02 16:04:20;;;;;;;13.65;7.65;;;;;;;;;;10137561;28;20043;-71
2022/11/02 16:09:30;;;;;;;12.45;7.68;;;;;;;;;;10124489;28;20390;-71
2022/11/02 16:14:31;;;;;;;16.80;8.43;;;;;;;;;;10131576;28;20046;-70
2022/11/02 16:19:27;;;;;;;9.48;8.52;;;;;;;;;;10129217;28;20050;-71
2022/11/02 16:24:23;;;;;;;13.98;9.45;;;;;;;;;;10119946;28;20054;-72
2022/11/02 16:29:24;;;;;;;12.60;8.43;;;;;;;;;;10129016;28;20069;-73
2022/11/02 16:34:23;;;;;;;12.80;9.18;;;;;;;;;;10142745;28;20554;-73
2022/11/02 16:39:22;;;;;;;9.10;8.18;;;;;;;;;;10131350;28;20081;-72
2022/11/02 16:44:23;;;;;;;13.52;8.60;;;;;;;;;;10126482;28;20133;-73
2022/11/02 16:49:20;;;;;;;9.23;8.23;;;;;;;;;;10129026;28;20050;-72
2022/11/02 16:54:27;;;;;;;14.38;8.82;;;;;;;;;;10116030;28;20042;-72
2022/11/02 16:59:24;;;;;;;9.52;8.63;;;;;;;;;;10130197;28;20046;-73
2022/11/02 17:04:21;;;;;;;9.27;8.20;;;;;;;;;;10141029;28;20054;-72
2022/11/02 17:09:20;;;;;;;11.00;8.90;;;;;;;;;;10130615;28;20053;-72
2022/11/02 17:14:19;;;;;;;14.43;8.48;;;;;;;;;;10134738;28;20142;-73
2022/11/02 17:19:33;;;;;;;12.63;8.18;;;;;;;;;;10117527;28;20123;-71
2022/11/02 17:24:30;;;;;;;11.52;8.43;;;;;;;;;;10152947;28;20043;-72
2022/11/02 17:29:29;;;;;;;10.88;8.65;;;;;;;;;;10118920;28;20054;-74
2022/11/02 17:34:26;;;;;;;10.05;8.70;;;;;;;;;;10124470;28;20052;-73
2022/11/02 17:39:23;;;;;;;11.70;8.50;;;;;;;;;;10130716;28;20165;-68
2022/11/02 17:44:20;;;;;;;9.98;9.02;;;;;;;;;;10129022;28;20552;-68
2022/11/02 17:49:17;;;;;;;15.07;9.70;;;;;;;;;;10138459;28;20057;-68
2022/11/02 17:54:13;;;;;;;12.93;9.65;;;;;;;;;;10125405;28;20761;-68
2022/11/02 17:59:09;;;;;;;12.93;9.50;;;;;;;;;;10130014;28;20672;-68
2022/11/02 18:04:06;;;;;;;10.15;9.25;;;;;;;;;;10127737;28;20530;-68
2022/11/02 18:09:13;;;;;;;9.80;8.63;;;;;;;;;;10129029;28;20050;-67
2022/11/02 18:14:15;;;;;;;12.02;9.15;;;;;;;;;;10124268;28;20078;-68
2022/11/02 18:19:11;;;;;;;13.13;10.30;;;;;;;;;;10128981;28;20498;-68
2022/11/02 18:24:08;;;;;;;12.30;9.55;;;;;;;;;;10131899;28;20043;-67
2022/11/02 18:29:04;;;;;;;9.30;8.50;;;;;;;;;;10126687;28;20050;-68
2022/11/02 18:34:00;;;;;;;14.35;10.82;;;;;;;;;;10135662;28;20046;-68
2022/11/02 18:38:57;;;;;;;10.27;9.32;;;;;;;;;;10134687;28;20051;-68
2022/11/02 18:43:54;;;;;;;11.13;9.63;;;;;;;;;;10134914;28;20061;-68
2022/11/02 18:48:58;;;;;;;13.00;10.23;;;;;;;;;;10136203;28;20042;-68
2022/11/02 18:54:02;;;;;;;15.48;11.27;;;;;;;;;;10120923;28;20042;-68
2022/11/02 18:58:58;;;;;;;14.15;12.07;;;;;;;;;;10101058;28;20050;-67
2022/11/02 19:03:56;;;;;;;15.88;11.82;;;;;;;;;;10125266;28;20113;-67
2022/11/02 19:14:07;;;;;;;13.30;12.10;;;;;;;;;;10114662;28;20078;-68
2022/11/02 19:19:03;;;;;;;16.75;12.07;;;;;;;;;;10134342;28;20054;-67
2022/11/02 19:23:59;;;;;;;13.23;11.82;;;;;;;;;;10140197;28;20054;-67
2022/11/02 19:28:56;;;;;;;17.98;13.02;;;;;;;;;;10160417;28;20058;-67
2022/11/02 19:34:00;;;;;;;13.48;12.13;;;;;;;;;;10141456;28;20054;-67
2022/11/02 19:38:58;;;;;;;16.98;13.32;;;;;;;;;;10135085;28;20395;-67
2022/11/02 19:43:58;;;;;;;14.43;12.98;;;;;;;;;;10138503;28;20042;-67
2022/11/02 19:48:55;;;;;;;15.20;13.63;;;;;;;;;;10138211;28;20053;-67
2022/11/02 19:53:53;;;;;;;15.43;13.68;;;;;;;;;;10141400;28;20050;-67
2022/11/02 19:58:50;;;;;;;16.27;13.60;;;;;;;;;;10148007;28;20054;-67
2022/11/02 20:03:47;;;;;;;15.25;13.80;;;;;;;;;;10148413;28;20038;-67
2022/11/02 20:08:43;;;;;;;16.08;14.48;;;;;;;;;;10144082;28;20050;-67
2022/11/02 20:13:41;;;;;;;16.05;14.55;;;;;;;;;;10140487;28;20481;-67
2022/11/02 20:18:38;;;;;;;16.77;15.05;;;;;;;;;;10153680;28;20039;-67
2022/11/02 20:23:34;;;;;;;16.88;14.23;;;;;;;;;;10141211;28;20038;-68
2022/11/02 20:28:31;;;;;;;16.58;15.05;;;;;;;;;;10150398;28;20664;-67
2022/11/02 20:33:27;;;;;;;17.27;15.60;;;;;;;;;;10138503;28;20053;-67
2022/11/02 20:38:23;;;;;;;16.58;15.05;;;;;;;;;;10143329;28;20534;-67
2022/11/02 20:43:20;;;;;;;18.88;15.07;;;;;;;;;;10134282;28;20042;-67
2022/11/02 20:48:16;;;;;;;15.43;14.13;;;;;;;;;;10127842;28;20042;-67
2022/11/02 20:53:12;;;;;;;16.77;14.85;;;;;;;;;;10142806;28;20046;-68
2022/11/02 20:58:08;;;;;;;15.60;14.15;;;;;;;;;;10135991;28;20038;-68
2022/11/02 21:03:05;;;;;;;16.40;15.00;;;;;;;;;;10146261;28;20043;-68
2022/11/02 21:08:02;;;;;;;15.68;14.10;;;;;;;;;;10133720;28;20050;-67
2022/11/02 21:18:13;;;;;;;15.77;14.50;;;;;;;;;;10127730;28;20409;-67
2022/11/02 21:23:10;;;;;;;19.67;17.23;;;;;;;;;;10127094;28;20858;-68
2022/11/02 21:28:06;;;;;;;23.00;16.95;;;;;;;;;;10126643;28;20059;-68
2022/11/02 21:33:03;;;;;;;17.80;16.00;;;;;;;;;;10126921;28;20042;-68
2022/11/02 21:38:00;;;;;;;17.80;15.85;;;;;;;;;;10140296;28;20046;-68
2022/11/02 21:43:02;;;;;;;17.47;15.63;;;;;;;;;;10147825;28;20047;-68
2022/11/02 21:47:59;;;;;;;20.15;16.48;;;;;;;;;;10138521;28;20042;-68
2022/11/02 21:52:55;;;;;;;17.77;14.35;;;;;;;;;;10144881;28;20042;-67
2022/11/02 21:57:51;;;;;;;18.20;15.98;;;;;;;;;;10146151;28;20117;-68
2022/11/02 22:02:47;;;;;;;16.35;14.70;;;;;;;;;;10151062;28;20050;-68
2022/11/02 22:18:13;;;;;;;17.38;15.75;;;;;;;;;;10136170;28;20515;-68
2022/11/02 22:23:10;;;;;;;17.30;15.52;;;;;;;;;;10142277;28;20675;-67
2022/11/02 22:28:06;;;;;;;19.45;17.58;;;;;;;;;;10144752;28;20052;-68
2022/11/02 22:33:03;;;;;;;17.23;15.63;;;;;;;;;;10146252;28;22085;-68
2022/11/02 22:43:14;;;;;;;18.73;17.10;;;;;;;;;;10136566;28;20050;-68
2022/11/02 22:48:11;;;;;;;20.27;18.45;;;;;;;;;;10148221;28;20046;-68
2022/11/02 22:53:07;;;;;;;20.35;18.30;;;;;;;;;;10146376;28;20073;-67
2022/11/02 22:58:04;;;;;;;21.15;19.55;;;;;;;;;;10144607;28;20129;-68
2022/11/02 23:03:00;;;;;;;20.45;18.40;;;;;;;;;;10147602;28;20049;-68
2022/11/02 23:07:56;;;;;;;21.67;17.92;;;;;;;;;;10138622;28;20046;-68
2022/11/02 23:12:52;;;;;;;20.15;18.10;;;;;;;;;;10134517;28;21120;-68
2022/11/02 23:17:48;;;;;;;21.60;18.45;;;;;;;;;;10136726;28;20038;-68
2022/11/02 23:32:57;;;;;;;19.05;17.67;;;;;;;;;;10145795;28;20049;-67
2022/11/02 23:38:04;;;;;;;19.92;18.00;;;;;;;;;;10148520;28;20042;-67
2022/11/02 23:43:00;;;;;;;18.38;16.73;;;;;;;;;;10151342;28;20038;-67
2022/11/02 23:47:56;;;;;;;18.73;16.92;;;;;;;;;;10153962;28;20049;-69
2022/11/02 23:58:07;;;;;;;18.20;16.50;;;;;;;;;;10145333;28;20049;-68
